Strona główna
METAR-TAF:

METAR-TAF

Lotnisko :

Oswego County Airport

Fulton, Nowy Jork, Stany Zjednoczone

Szerokość geograficzna: 43-21-03N, Długość geograficzna: 076-23-17W, wysokość: 145 m

Aktualna obserwacja pogody

Raport powstał 28 minut temu, godzina 21:54 UTC
Wiatr 14 kt od południe w porywach dochodzący do 21 kt
Temperatura 3°C
Wilgotność 52%
Ciśnienie 1019 hPa
Widzialność: 16.1 km
bezchmurnie

METAR: KFZY 082154Z AUTO 18014G21KT 10SM CLR 03/M06 A3010 RMK AO2 SLP200 T00331056

czas: 17:22 (22:22 UTC)


TAF: brakujący

Obserwacja i prognoza pogody dla ponad 4000 lotnisk (raport METAR i TAF).

Dostępne stacje oznaczono żółtymi i czerwonymi punktami na mapie.

Najedź kursorem aby zobaczyć nazwę stacji.

Kliknij aby zobaczyć obserwacje i prognozy pogody.

Aby zmienić mapę: kliknij na zielony przycisk z czarnym krzyżykiem, aby powiększyć; na zielony przycisk z myślnikiem, aby pomniejszyć; na zielone strzałki, aby przejść do map sąsiednich.


METAR-TAF: